Time;durP1;ratioP1;P1;durP2;ratioP2;P2;SDS_P1;SDS_P2;PMS_P1;PMS_P2;Temp;Humidity;BMP_temperature;BMP_pressure;BME280_temperature;BME280_humidity;BME280_pressure;Samples;Min_cycle;Max_cycle;Signal;HPM_P1;HPM_P2
2022/07/11 00:02:14;;;;;;;9.40;6.18;;;;;;;19.21;72.34;99413.56;5054047;28;20089;-82
2022/07/11 00:04:48;;;;;;;6.80;5.72;;;;;;;19.38;71.97;99444.63;5052084;28;20391;-82
2022/07/11 00:07:15;;;;;;;7.50;6.80;;;;;;;19.38;72.15;99436.69;5053260;28;20049;-83
2022/07/11 00:09:42;;;;;;;7.30;6.50;;;;;;;19.34;72.08;99425.38;5053287;28;20106;-82
2022/07/11 00:12:11;;;;;;;8.82;6.38;;;;;;;19.29;72.02;99413.22;5053248;28;20053;-81
2022/07/11 00:14:41;;;;;;;7.45;6.03;;;;;;;19.33;72.05;99425.44;5051209;28;20057;-83
2022/07/11 00:17:08;;;;;;;8.48;6.10;;;;;;;19.36;72.13;99431.47;5052135;28;20442;-81
2022/07/11 00:19:37;;;;;;;7.93;6.13;;;;;;;19.39;71.97;99431.34;5056684;28;20060;-82
2022/07/11 00:22:05;;;;;;;7.95;5.80;;;;;;;19.14;71.91;99391.72;5060352;28;20053;-81
2022/07/11 00:24:33;;;;;;;7.35;6.28;;;;;;;19.41;71.85;99439.25;5052634;28;20049;-82
2022/07/11 00:27:00;;;;;;;6.95;6.07;;;;;;;19.44;71.58;99428.50;5053675;28;20057;-83
2022/07/11 00:29:28;;;;;;;10.82;6.13;;;;;;;19.42;71.24;99420.66;5054762;28;20040;-83
2022/07/11 00:31:57;;;;;;;9.77;6.47;;;;;;;19.50;71.13;99427.41;5052831;28;20079;-82
2022/07/11 00:34:24;;;;;;;8.88;6.15;;;;;;;19.51;70.83;99423.81;5053778;28;20052;-82
2022/07/11 00:36:52;;;;;;;8.02;5.97;;;;;;;19.38;70.99;99391.66;5053759;28;20048;-81
2022/07/11 00:39:19;;;;;;;9.93;5.75;;;;;;;19.46;70.87;99421.38;5053103;28;20126;-83
2022/07/11 00:41:46;;;;;;;8.55;5.78;;;;;;;19.51;70.74;99427.34;5053461;28;20061;-82
2022/07/11 00:44:14;;;;;;;7.38;5.57;;;;;;;19.49;70.57;99428.31;5052085;28;20059;-82
2022/07/11 00:46:42;;;;;;;8.38;5.78;;;;;;;19.52;70.41;99421.13;5052421;28;20045;-81
2022/07/11 00:49:09;;;;;;;8.85;5.80;;;;;;;19.55;70.00;99425.44;5053036;28;20060;-80
2022/07/11 00:51:37;;;;;;;7.78;6.00;;;;;;;19.28;69.77;99370.00;5054335;28;20059;-81
2022/07/11 00:54:07;;;;;;;7.00;5.95;;;;;;;19.58;70.08;99414.72;5056269;28;20064;-80
2022/07/11 00:56:35;;;;;;;9.23;6.25;;;;;;;19.40;69.60;99390.72;5054821;28;20510;-80
2022/07/11 00:59:02;;;;;;;6.68;5.97;;;;;;;19.63;69.74;99410.09;5053242;28;20094;-80
2022/07/11 01:01:29;;;;;;;10.55;6.10;;;;;;;19.63;69.55;99410.94;5052297;28;20060;-80
2022/07/11 01:03:56;;;;;;;9.88;6.40;;;;;;;19.68;69.57;99401.94;5052246;28;20049;-81
2022/07/11 01:06:23;;;;;;;9.50;6.55;;;;;;;19.71;69.49;99401.88;5034651;28;20052;-82
2022/07/11 01:08:50;;;;;;;6.55;5.82;;;;;;;19.14;69.15;99320.25;5053193;28;20057;-82
2022/07/11 01:11:18;;;;;;;9.50;6.10;;;;;;;19.75;69.25;99414.94;5051934;28;20132;-82
2022/07/11 01:13:46;;;;;;;8.88;5.80;;;;;;;19.76;69.23;99410.47;5052104;28;20052;-81
2022/07/11 01:16:18;;;;;;;7.88;6.20;;;;;;;19.76;69.17;99413.13;5050642;28;20099;-82
2022/07/11 01:18:50;;;;;;;8.38;6.30;;;;;;;19.78;69.03;99408.63;5052148;28;20079;-81
2022/07/11 01:21:25;;;;;;;6.60;5.82;;;;;;;19.78;68.98;99404.19;5050545;28;20048;-81
2022/07/11 01:23:54;;;;;;;8.98;6.20;;;;;;;19.75;69.05;99411.41;5052813;28;20049;-82
2022/07/11 01:26:23;;;;;;;6.97;5.57;;;;;;;19.82;68.80;99429.63;5054913;28;20044;-82
2022/07/11 01:28:51;;;;;;;10.40;5.67;;;;;;;19.75;68.79;99428.19;5056095;28;20506;-81
2022/07/11 01:31:19;;;;;;;7.65;5.53;;;;;;;19.94;68.38;99453.91;5055766;28;20119;-81
2022/07/11 01:33:47;;;;;;;8.65;6.20;;;;;;;19.99;67.85;99420.97;5054440;28;20098;-81
2022/07/11 01:36:14;;;;;;;9.50;5.55;;;;;;;20.12;67.11;99402.75;5054579;28;20084;-81
2022/07/11 01:38:41;;;;;;;13.02;6.32;;;;;;;20.41;66.75;99451.91;5055636;28;20057;-81
2022/07/11 01:41:08;;;;;;;6.65;6.05;;;;;;;20.53;66.27;99439.03;5055540;28;20064;-82
2022/07/11 01:43:35;;;;;;;7.60;5.97;;;;;;;20.51;65.67;99409.03;5055041;28;20060;-81
2022/07/11 01:46:02;;;;;;;8.88;6.25;;;;;;;20.81;65.17;99428.06;5055776;28;20061;-84
2022/07/11 01:48:29;;;;;;;7.40;5.93;;;;;;;21.04;64.49;99434.97;5054349;28;20102;-82
2022/07/11 01:50:56;;;;;;;6.72;6.13;;;;;;;21.21;64.20;99444.81;5055597;28;20102;-81
2022/07/11 01:53:24;;;;;;;8.35;6.05;;;;;;;21.19;63.67;99425.44;5054262;28;20053;-81
2022/07/11 01:55:51;;;;;;;7.25;6.20;;;;;;;21.55;63.10;99435.25;5055557;28;20414;-83
2022/07/11 01:58:38;;;;;;;6.68;6.07;;;;;;;21.81;62.46;99448.13;5055058;28;20502;-81
2022/07/11 02:01:05;;;;;;;10.00;5.97;;;;;;;21.96;61.78;99442.97;5054410;28;20052;-82
2022/07/11 02:03:32;;;;;;;9.10;6.25;;;;;;;22.03;61.33;99401.84;5055197;28;20468;-82
2022/07/11 02:05:59;;;;;;;9.30;6.22;;;;;;;22.13;60.97;99413.72;5055489;28;20529;-81
2022/07/11 02:08:27;;;;;;;7.78;6.00;;;;;;;22.11;60.97;99420.91;5055138;28;20128;-82
2022/07/11 02:10:54;;;;;;;8.40;6.25;;;;;;;22.33;60.78;99439.34;5055204;28;20072;-82
2022/07/11 02:13:23;;;;;;;8.07;6.22;;;;;;;22.41;59.85;99404.34;5055043;28;20124;-81
2022/07/11 02:15:50;;;;;;;6.53;5.80;;;;;;;23.47;57.45;99433.22;5055688;28;20494;-79
2022/07/11 02:18:19;;;;;;;7.93;5.68;;;;;;;24.74;53.50;99416.88;5055169;28;20048;-80
2022/07/11 02:20:48;;;;;;;7.65;5.72;;;;;;;26.15;49.80;99412.19;5054145;28;20077;-80
2022/07/11 02:23:17;;;;;;;6.70;5.72;;;;;;;27.11;47.43;99419.81;5059703;28;20044;-80
2022/07/11 02:25:44;;;;;;;6.05;5.43;;;;;;;27.61;45.56;99383.06;5081111;28;20052;-80
2022/07/11 02:28:12;;;;;;;7.07;5.53;;;;;;;28.12;44.56;99427.59;5070514;28;20056;-81
2022/07/11 02:30:41;;;;;;;5.50;5.00;;;;;;;28.59;43.45;99418.56;5074829;28;20084;-81
2022/07/11 02:33:11;;;;;;;5.60;5.07;;;;;;;28.80;42.71;99412.44;5072866;28;20045;-82
2022/07/11 02:35:38;;;;;;;7.45;5.07;;;;;;;29.31;41.51;99413.78;5070296;28;20470;-82
2022/07/11 02:38:05;;;;;;;5.88;5.30;;;;;;;29.70;40.64;99412.34;5052950;28;20426;-82
2022/07/11 02:40:31;;;;;;;7.82;5.47;;;;;;;29.02;40.91;99395.47;5053834;28;20414;-84
2022/07/11 02:43:01;;;;;;;7.57;5.43;;;;;;;29.10;41.03;99390.34;5054323;28;20087;-83
2022/07/11 02:45:28;;;;;;;6.38;4.97;;;;;;;29.71;40.03;99424.00;5057402;28;20061;-83
2022/07/11 02:47:55;;;;;;;5.78;5.10;;;;;;;29.34;40.60;99419.78;5059321;28;20072;-81
2022/07/11 02:50:22;;;;;;;6.03;4.95;;;;;;;28.93;40.53;99382.75;5057336;28;20555;-84
2022/07/11 02:52:49;;;;;;;6.85;5.32;;;;;;;28.64;42.02;99438.84;5054535;28;20125;-81
2022/07/11 02:55:16;;;;;;;5.35;4.85;;;;;;;27.93;43.64;99431.66;5054561;28;20099;-81
2022/07/11 02:57:43;;;;;;;9.50;5.30;;;;;;;27.72;43.90;99419.81;5054322;28;20099;-82
2022/07/11 03:00:13;;;;;;;6.85;5.03;;;;;;;27.05;45.33;99429.13;5054500;28;20111;-81
2022/07/11 03:02:40;;;;;;;7.68;5.40;;;;;;;27.68;43.90;99415.66;5054101;28;20052;-80
2022/07/11 03:05:08;;;;;;;7.10;5.50;;;;;;;28.67;42.11;99407.19;5054434;28;20045;-80
2022/07/11 03:07:36;;;;;;;6.05;5.43;;;;;;;29.70;39.61;99369.28;5053836;28;20057;-81
2022/07/11 03:10:03;;;;;;;5.55;4.93;;;;;;;30.70;37.76;99409.25;5054172;28;20049;-81
2022/07/11 03:12:30;;;;;;;6.18;4.93;;;;;;;31.31;36.37;99399.41;5054045;28;20052;-83
2022/07/11 03:14:57;;;;;;;5.97;5.00;;;;;;;31.48;36.21;99403.31;5054002;28;20076;-81
2022/07/11 03:17:24;;;;;;;8.85;4.88;;;;;;;31.61;35.35;99396.66;5053872;28;20061;-81
2022/07/11 03:19:51;;;;;;;5.47;4.70;;;;;;;31.84;34.78;99366.69;5054178;28;20064;-83
2022/07/11 03:22:18;;;;;;;11.57;4.63;;;;;;;32.58;34.01;99408.41;5053806;28;20118;-82
2022/07/11 03:24:46;;;;;;;6.30;4.90;;;;;;;33.32;32.84;99406.66;5052565;28;20135;-81
2022/07/11 03:27:13;;;;;;;5.88;4.93;;;;;;;33.02;32.44;99370.78;5053685;28;20079;-82
2022/07/11 03:29:40;;;;;;;9.23;5.22;;;;;;;33.64;32.23;99404.34;5053608;28;20049;-82
2022/07/11 03:32:09;;;;;;;5.43;4.93;;;;;;;34.21;31.30;99393.16;5053845;28;20059;-83
2022/07/11 03:34:36;;;;;;;5.18;4.65;;;;;;;34.37;30.78;99392.41;5053518;28;20085;-82
2022/07/11 03:37:04;;;;;;;5.13;4.70;;;;;;;33.70;31.61;99374.94;5054982;28;20080;-84
2022/07/11 03:39:31;;;;;;;5.40;4.95;;;;;;;33.76;31.71;99398.69;5055644;28;20053;-82
2022/07/11 03:41:58;;;;;;;5.85;5.25;;;;;;;34.33;30.67;99410.03;5054228;28;20053;-82
2022/07/11 03:44:25;;;;;;;7.50;4.95;;;;;;;34.42;30.39;99392.81;5054247;28;20056;-81
2022/07/11 03:46:52;;;;;;;5.22;4.72;;;;;;;34.91;29.42;99397.66;5053407;28;20061;-81
2022/07/11 03:49:19;;;;;;;4.90;4.35;;;;;;;35.35;28.97;99410.25;5052559;28;20114;-81
2022/07/11 03:51:46;;;;;;;5.72;5.00;;;;;;;34.98;29.54;99401.44;5053293;28;20056;-84
2022/07/11 03:54:13;;;;;;;6.97;5.10;;;;;;;36.06;28.05;99398.81;5052189;28;20457;-84
2022/07/11 03:56:41;;;;;;;5.43;4.90;;;;;;;36.67;27.09;99410.16;5052897;28;20614;-83
2022/07/11 03:59:09;;;;;;;5.97;5.38;;;;;;;36.79;26.77;99410.66;5053616;28;20523;-88
2022/07/11 04:01:36;;;;;;;5.50;5.10;;;;;;;37.25;26.22;99416.25;5054333;28;20118;-85
2022/07/11 04:04:05;;;;;;;5.50;4.72;;;;;;;37.72;25.73;99406.31;5052415;28;20060;-88
2022/07/11 04:06:32;;;;;;;6.05;4.70;;;;;;;37.36;25.65;99384.22;5058824;28;20041;-85
2022/07/11 04:08:59;;;;;;;5.03;4.65;;;;;;;37.87;25.33;99409.09;5052109;28;20052;-81
2022/07/11 04:11:26;;;;;;;7.45;4.72;;;;;;;37.60;25.41;99408.63;5052567;28;20048;-82
2022/07/11 04:13:53;;;;;;;6.63;5.00;;;;;;;37.99;25.21;99409.50;5053000;28;20053;-82
2022/07/11 04:16:20;;;;;;;5.40;4.70;;;;;;;38.40;24.53;99411.88;5051739;28;20072;-82
2022/07/11 04:18:47;;;;;;;7.85;4.88;;;;;;;38.22;24.57;99404.06;5052669;28;20057;-83
2022/07/11 04:21:15;;;;;;;8.30;5.03;;;;;;;36.67;26.62;99391.13;5053214;28;20059;-84
2022/07/11 04:23:42;;;;;;;6.53;4.90;;;;;;;33.91;30.86;99393.59;5052454;28;20399;-81
2022/07/11 04:26:10;;;;;;;6.57;5.05;;;;;;;32.21;33.83;99395.66;5053197;28;20503;-83
2022/07/11 04:28:37;;;;;;;7.60;5.53;;;;;;;31.23;35.34;99411.75;5071591;28;20076;-82
2022/07/11 04:31:04;;;;;;;6.82;5.18;;;;;;;30.49;37.27;99416.53;5054039;28;20056;-82
2022/07/11 04:33:31;;;;;;;10.38;5.25;;;;;;;29.75;37.96;99380.56;5052334;28;20135;-83
2022/07/11 04:35:58;;;;;;;7.90;5.45;;;;;;;29.57;38.86;99407.09;5053355;28;20624;-82
2022/07/11 04:38:25;;;;;;;5.70;5.20;;;;;;;29.04;39.55;99372.00;5052402;28;20506;-82
2022/07/11 04:40:52;;;;;;;5.63;5.05;;;;;;;28.97;39.91;99389.59;5052555;28;20049;-82
2022/07/11 04:43:19;;;;;;;5.40;4.90;;;;;;;28.93;40.20;99405.13;5051222;28;20056;-83
2022/07/11 04:45:46;;;;;;;7.88;5.47;;;;;;;28.68;40.23;99406.22;5052334;28;20059;-82
2022/07/11 04:48:13;;;;;;;7.13;5.30;;;;;;;28.68;40.98;99405.38;5052887;28;20049;-82
2022/07/11 04:50:44;;;;;;;6.13;4.78;;;;;;;28.54;41.08;99385.81;5052452;28;20106;-81
2022/07/11 04:53:12;;;;;;;7.97;5.30;;;;;;;28.23;41.78;99390.03;5051996;28;20075;-81
2022/07/11 04:55:41;;;;;;;7.97;5.38;;;;;;;28.18;41.93;99390.38;5052172;28;20410;-79
2022/07/11 04:58:08;;;;;;;6.45;5.20;;;;;;;28.22;41.98;99384.75;5052886;28;20060;-81
2022/07/11 05:00:35;;;;;;;5.53;5.03;;;;;;;28.38;41.64;99378.09;5054029;28;20111;-81
2022/07/11 05:03:08;;;;;;;8.00;4.95;;;;;;;28.45;41.61;99374.91;5056992;28;20057;-82
2022/07/11 05:05:36;;;;;;;6.10;5.45;;;;;;;28.50;41.14;99341.41;5056503;28;20049;-82
2022/07/11 05:08:03;;;;;;;7.57;5.57;;;;;;;28.62;41.20;99393.28;5056548;28;20056;-79
2022/07/11 05:10:33;;;;;;;6.88;5.20;;;;;;;28.43;41.73;99366.13;5056247;28;20517;-80
2022/07/11 05:13:00;;;;;;;5.18;4.63;;;;;;;28.39;41.99;99376.25;5056637;28;20525;-81
2022/07/11 05:15:27;;;;;;;5.57;5.03;;;;;;;28.34;42.63;99375.75;5056091;28;20083;-81
2022/07/11 05:17:54;;;;;;;6.70;5.20;;;;;;;28.09;42.59;99336.53;5056114;28;20524;-80
2022/07/11 05:20:21;;;;;;;8.60;5.20;;;;;;;28.38;42.53;99378.09;5056140;28;20053;-81
2022/07/11 05:22:48;;;;;;;5.90;5.30;;;;;;;28.22;42.86;99361.44;5055748;28;20488;-81
2022/07/11 05:25:15;;;;;;;6.57;5.30;;;;;;;28.39;42.87;99374.44;5056001;28;20080;-81
2022/07/11 05:27:42;;;;;;;5.30;4.80;;;;;;;28.57;41.96;99364.09;5053823;28;20106;-81
2022/07/11 05:30:10;;;;;;;6.68;5.50;;;;;;;28.82;41.92;99375.56;5055069;28;20079;-81
2022/07/11 05:32:37;;;;;;;6.82;5.00;;;;;;;28.99;41.03;99347.31;5055449;28;20127;-81
2022/07/11 05:35:04;;;;;;;6.45;5.38;;;;;;;28.91;41.82;99372.16;5059338;28;20461;-79
2022/07/11 05:37:32;;;;;;;5.68;5.18;;;;;;;28.92;41.52;99357.72;5055431;28;20063;-80
2022/07/11 05:39:58;;;;;;;5.82;4.90;;;;;;;28.52;41.85;99331.38;5070088;28;20117;-82
2022/07/11 05:42:32;;;;;;;5.45;4.95;;;;;;;28.62;42.18;99370.94;5064725;28;20514;-82
2022/07/11 05:44:59;;;;;;;7.43;5.00;;;;;;;28.67;42.23;99364.19;5054448;28;20057;-81
2022/07/11 05:47:26;;;;;;;6.60;5.15;;;;;;;28.63;41.89;99360.06;5055761;28;20211;-79
2022/07/11 05:49:53;;;;;;;6.80;4.68;;;;;;;28.50;42.74;99352.13;5055252;28;20494;-82
2022/07/11 05:52:20;;;;;;;5.50;5.00;;;;;;;28.63;42.41;99348.44;5054743;28;20383;-82
2022/07/11 05:54:47;;;;;;;6.40;5.32;;;;;;;28.50;42.36;99341.41;5054034;28;20045;-82
2022/07/11 05:57:14;;;;;;;6.53;5.00;;;;;;;28.47;42.92;99349.66;5055400;28;20053;-82
2022/07/11 05:59:40;;;;;;;6.40;5.00;;;;;;;28.57;42.74;99352.50;5058306;28;20072;-81
2022/07/11 06:02:08;;;;;;;6.00;4.95;;;;;;;28.95;41.73;99351.22;5066448;28;20084;-79
2022/07/11 06:04:36;;;;;;;5.47;4.97;;;;;;;29.03;41.75;99351.47;5063711;28;20053;-80
2022/07/11 06:07:04;;;;;;;6.97;5.25;;;;;;;28.76;41.70;99346.50;5054169;28;20518;-80
2022/07/11 06:09:31;;;;;;;4.97;4.63;;;;;;;28.64;41.83;99345.66;5055414;28;20102;-83
2022/07/11 06:11:59;;;;;;;6.95;5.00;;;;;;;28.62;42.22;99339.53;5054196;28;20107;-82
2022/07/11 06:14:26;;;;;;;7.35;5.22;;;;;;;28.80;41.65;99334.50;5054864;28;20052;-79
2022/07/11 06:16:53;;;;;;;5.18;4.68;;;;;;;28.73;42.21;99336.84;5054878;28;20052;-82
2022/07/11 06:19:20;;;;;;;5.13;4.72;;;;;;;28.69;42.51;99337.22;5053535;28;20510;-80
2022/07/11 06:21:47;;;;;;;5.47;4.97;;;;;;;28.62;42.56;99304.63;5055004;28;20052;-81
2022/07/11 06:24:14;;;;;;;6.60;4.93;;;;;;;28.97;42.18;99335.84;5054946;28;20079;-80
2022/07/11 06:26:41;;;;;;;6.88;4.93;;;;;;;28.97;41.79;99331.34;5054049;28;20139;-80
2022/07/11 06:29:08;;;;;;;5.18;4.75;;;;;;;28.97;42.04;99334.03;5055173;28;20148;-79
2022/07/11 06:31:35;;;;;;;5.20;4.78;;;;;;;28.95;41.86;99317.16;5057391;28;20063;-80
2022/07/11 06:34:02;;;;;;;5.35;4.85;;;;;;;29.20;41.15;99318.72;5058055;28;20148;-79
2022/07/11 06:36:29;;;;;;;5.40;4.90;;;;;;;29.19;40.92;99311.63;5054370;28;20468;-79
2022/07/11 06:38:56;;;;;;;8.07;4.95;;;;;;;29.26;41.10;99316.50;5054805;28;20560;-80
2022/07/11 06:41:23;;;;;;;6.43;5.10;;;;;;;29.34;40.98;99317.56;5063814;28;20049;-81
2022/07/11 06:43:51;;;;;;;5.30;4.80;;;;;;;29.27;40.76;99302.91;5074496;28;20071;-82
2022/07/11 06:46:18;;;;;;;5.22;4.72;;;;;;;29.36;40.36;99312.03;5057203;28;20052;-82
2022/07/11 06:48:45;;;;;;;5.38;4.88;;;;;;;29.18;40.73;99317.97;5054710;28;20361;-82
2022/07/11 06:51:13;;;;;;;5.97;5.03;;;;;;;28.99;40.82;99297.09;5054672;28;20135;-81
2022/07/11 06:53:40;;;;;;;7.68;4.97;;;;;;;29.07;39.99;99312.59;5053180;28;20106;-82
2022/07/11 06:56:07;;;;;;;6.30;5.00;;;;;;;29.18;40.03;99311.75;5053438;28;20049;-82
2022/07/11 06:58:34;;;;;;;7.05;4.75;;;;;;;29.20;39.57;99315.16;5053968;28;20052;-82
2022/07/11 07:01:05;;;;;;;7.18;4.82;;;;;;;29.20;40.22;99313.31;5053345;28;20414;-82
2022/07/11 07:03:34;;;;;;;7.10;4.90;;;;;;;29.10;40.00;99304.31;5054333;28;20076;-82
2022/07/11 07:06:02;;;;;;;5.80;5.00;;;;;;;29.30;40.05;99326.03;5054204;28;20494;-82
2022/07/11 07:08:29;;;;;;;5.85;5.28;;;;;;;29.26;39.71;99311.13;5054984;28;20053;-82
2022/07/11 07:10:57;;;;;;;7.95;5.20;;;;;;;29.27;40.35;99318.19;5054447;28;20064;-82
2022/07/11 07:13:30;;;;;;;9.35;4.85;;;;;;;29.29;39.89;99313.56;5054737;28;20053;-82
2022/07/11 07:15:57;;;;;;;6.60;5.47;;;;;;;29.32;40.26;99310.59;5054016;28;20052;-82
2022/07/11 07:18:25;;;;;;;5.43;4.93;;;;;;;29.09;40.64;99267.66;5054314;28;20090;-82
2022/07/11 07:20:52;;;;;;;8.00;5.32;;;;;;;29.24;40.98;99294.25;5053909;28;20056;-82
2022/07/11 07:23:20;;;;;;;5.25;4.75;;;;;;;29.60;39.99;99309.16;5053699;28;20155;-81
2022/07/11 07:25:47;;;;;;;6.95;4.65;;;;;;;29.59;39.76;99300.19;5053563;28;20564;-82
2022/07/11 07:28:14;;;;;;;5.32;4.85;;;;;;;29.66;39.16;99303.22;5053598;28;20399;-82
2022/07/11 07:30:41;;;;;;;5.47;5.07;;;;;;;29.71;39.65;99282.22;5053726;28;20041;-83
2022/07/11 07:33:12;;;;;;;5.32;4.75;;;;;;;29.91;38.49;99298.50;5054575;28;20053;-81
2022/07/11 07:35:40;;;;;;;7.32;5.18;;;;;;;30.01;39.12;99296.72;5036922;28;20053;-81
2022/07/11 07:38:07;;;;;;;5.68;5.18;;;;;;;29.95;38.84;99297.25;5053499;28;20045;-82
2022/07/11 07:40:34;;;;;;;5.32;4.60;;;;;;;29.79;38.59;99305.75;5055433;28;20060;-82
2022/07/11 07:43:01;;;;;;;8.48;5.55;;;;;;;29.83;38.99;99304.53;5052817;28;20477;-82
2022/07/11 07:45:28;;;;;;;5.40;4.88;;;;;;;29.83;38.48;99288.38;5052520;28;20056;-81
2022/07/11 07:47:55;;;;;;;6.68;5.25;;;;;;;30.19;38.35;99295.09;5053278;28;20517;-83
2022/07/11 07:50:23;;;;;;;7.43;5.18;;;;;;;30.57;37.38;99296.28;5053581;28;20061;-81
2022/07/11 07:52:50;;;;;;;5.63;4.53;;;;;;;30.77;36.69;99304.44;5053268;28;20103;-82
2022/07/11 07:55:17;;;;;;;5.82;4.90;;;;;;;30.72;36.66;99286.00;5053461;28;20055;-82
2022/07/11 07:57:45;;;;;;;6.53;4.70;;;;;;;30.94;35.47;99295.72;5051841;28;20052;-82
2022/07/11 08:03:05;;;;;;;7.68;4.50;;;;;;;30.82;35.89;99288.69;5053536;28;20128;-82
2022/07/11 08:05:32;;;;;;;5.35;4.35;;;;;;;30.87;35.96;99283.78;5052267;28;20106;-82
2022/07/11 08:08:00;;;;;;;6.55;5.13;;;;;;;31.06;35.85;99304.53;5053201;28;20056;-82
2022/07/11 08:10:27;;;;;;;6.55;4.95;;;;;;;31.09;35.92;99287.22;5053584;28;20053;-82
2022/07/11 08:12:54;;;;;;;5.10;4.70;;;;;;;31.15;35.73;99290.22;5053147;28;20063;-82
2022/07/11 08:15:21;;;;;;;10.23;4.97;;;;;;;31.35;35.38;99290.22;5052912;28;20074;-82
2022/07/11 08:17:48;;;;;;;8.88;5.88;;;;;;;31.50;35.23;99288.00;5052734;28;20049;-82
2022/07/11 08:20:15;;;;;;;4.97;4.57;;;;;;;31.33;35.50;99284.13;5052929;28;20056;-82
2022/07/11 08:22:42;;;;;;;4.50;4.20;;;;;;;31.22;36.17;99296.75;5052657;28;20107;-81
2022/07/11 08:25:10;;;;;;;6.72;4.82;;;;;;;30.93;36.11;99272.47;5051663;28;20418;-81
2022/07/11 08:27:37;;;;;;;5.32;4.57;;;;;;;30.80;36.62;99290.69;5051704;28;20048;-83
2022/07/11 08:30:08;;;;;;;6.22;5.53;;;;;;;30.74;37.18;99293.91;5052949;28;20084;-83
2022/07/11 08:32:40;;;;;;;5.05;4.55;;;;;;;30.73;36.26;99286.84;5053289;28;20087;-82
2022/07/11 08:35:09;;;;;;;7.43;4.68;;;;;;;30.67;35.96;99293.63;5056909;28;20060;-81
2022/07/11 08:37:36;;;;;;;5.47;4.65;;;;;;;30.85;35.32;99292.94;5066655;28;20494;-82
2022/07/11 08:40:04;;;;;;;5.65;4.70;;;;;;;30.88;35.15;99272.00;5053125;28;20056;-82
2022/07/11 08:42:35;;;;;;;5.30;4.90;;;;;;;30.69;35.72;99247.66;5052943;28;20048;-82
2022/07/11 08:45:02;;;;;;;5.80;5.00;;;;;;;30.58;36.03;99262.94;5053467;28;20061;-82
2022/07/11 08:47:30;;;;;;;5.80;5.20;;;;;;;30.63;36.42;99265.22;5052717;28;20057;-82
2022/07/11 08:49:59;;;;;;;5.27;4.77;;;;;;;30.52;37.09;99271.59;5052597;28;20053;-82
2022/07/11 08:52:27;;;;;;;6.30;5.30;;;;;;;30.45;36.93;99283.06;5052158;28;20468;-82
2022/07/11 08:54:55;;;;;;;6.10;4.87;;;;;;;30.58;36.45;99259.41;5052240;28;20053;-82
2022/07/11 08:57:22;;;;;;;5.88;4.63;;;;;;;30.88;35.20;99263.91;5052543;28;20052;-82
2022/07/11 08:59:55;;;;;;;5.10;4.57;;;;;;;31.02;35.30;99281.56;5052399;28;20087;-82
2022/07/11 09:02:24;;;;;;;4.70;4.30;;;;;;;30.96;34.84;99241.66;5051123;28;20052;-82
2022/07/11 09:04:51;;;;;;;6.93;4.68;;;;;;;31.20;34.26;99265.50;5052200;28;20053;-82
2022/07/11 09:07:18;;;;;;;6.38;5.05;;;;;;;31.08;33.75;99242.38;5050896;28;20057;-82
2022/07/11 09:09:45;;;;;;;5.68;4.55;;;;;;;31.22;33.91;99256.28;5051911;28;20049;-83
2022/07/11 09:12:15;;;;;;;4.68;4.20;;;;;;;31.25;33.94;99255.13;5052192;28;20499;-82
2022/07/11 09:14:49;;;;;;;4.43;4.13;;;;;;;31.17;34.15;99268.47;5052015;28;20083;-83
2022/07/11 09:17:28;;;;;;;6.50;4.22;;;;;;;31.21;33.99;99269.91;5052376;28;20053;-81
2022/07/11 09:19:56;;;;;;;6.65;4.45;;;;;;;30.99;34.02;99241.38;5052040;28;20057;-82
2022/07/11 09:25:20;;;;;;;5.25;4.40;;;;;;;31.05;33.38;99267.78;5052646;28;20135;-82
2022/07/11 09:27:56;;;;;;;4.60;4.20;;;;;;;31.09;33.75;99254.88;5051940;28;20464;-81
2022/07/11 09:30:29;;;;;;;8.00;4.70;;;;;;;31.06;34.16;99255.97;5053180;28;20087;-83
2022/07/11 09:33:05;;;;;;;7.07;4.72;;;;;;;30.99;33.76;99219.78;5050579;28;20041;-83
2022/07/11 09:35:37;;;;;;;7.07;4.32;;;;;;;31.11;34.22;99256.44;5051921;28;20045;-83
2022/07/11 09:38:07;;;;;;;4.93;4.43;;;;;;;31.13;34.82;99250.91;5051918;28;20056;-83
2022/07/11 09:40:36;;;;;;;5.90;4.63;;;;;;;31.24;34.24;99256.16;5052288;28;20057;-82
2022/07/11 09:43:03;;;;;;;6.07;4.60;;;;;;;31.32;33.57;99233.84;5051788;28;20091;-82
2022/07/11 09:45:32;;;;;;;6.05;4.45;;;;;;;31.35;32.65;99247.06;5050965;28;20491;-81
2022/07/11 09:48:08;;;;;;;5.13;4.50;;;;;;;31.35;33.52;99245.22;5054511;28;20084;-83
2022/07/11 09:50:35;;;;;;;5.40;4.57;;;;;;;31.37;33.55;99226.19;5055857;28;20061;-83
2022/07/11 09:53:04;;;;;;;5.18;4.15;;;;;;;31.49;33.90;99230.47;5055455;28;20114;-83
2022/07/11 09:55:36;;;;;;;6.47;4.68;;;;;;;31.50;33.30;99232.16;5055495;28;20052;-81
2022/07/11 09:58:18;;;;;;;8.50;4.60;;;;;;;31.57;33.85;99233.28;5055881;28;20052;-82
2022/07/11 10:00:45;;;;;;;5.70;4.90;;;;;;;31.70;33.83;99242.94;5055683;28;20061;-84
2022/07/11 10:03:12;;;;;;;5.07;4.63;;;;;;;31.61;33.54;99223.91;5054703;28;20060;-83
2022/07/11 10:06:00;;;;;;;6.32;4.78;;;;;;;31.51;33.46;99241.09;5055531;28;20052;-83
2022/07/11 10:08:27;;;;;;;7.53;4.57;;;;;;;31.32;32.72;99204.16;5038067;28;20064;-82
2022/07/11 10:10:55;;;;;;;6.28;4.50;;;;;;;31.38;32.87;99231.41;5054043;28;20053;-83
2022/07/11 10:13:23;;;;;;;4.95;4.40;;;;;;;31.44;32.08;99219.25;5056079;28;20107;-83
2022/07/11 10:15:52;;;;;;;7.03;4.50;;;;;;;31.45;32.12;99212.88;5056159;28;20051;-84
2022/07/11 10:18:47;;;;;;;5.47;4.75;;;;;;;31.59;32.52;99230.44;5055728;28;20457;-81
2022/07/11 10:21:28;;;;;;;6.38;4.43;;;;;;;31.59;32.79;99207.00;5056151;28;20556;-83
2022/07/11 10:24:21;;;;;;;7.00;5.00;;;;;;;31.72;32.86;99230.97;5058536;28;20082;-82
2022/07/11 10:27:00;;;;;;;6.22;5.10;;;;;;;31.63;32.96;99215.66;5060843;28;20098;-80
2022/07/11 10:29:39;;;;;;;6.25;4.55;;;;;;;31.69;32.59;99211.53;5057741;28;20055;-82
2022/07/11 10:32:07;;;;;;;7.18;4.43;;;;;;;31.74;31.95;99229.00;5055809;28;20509;-83
2022/07/11 10:34:40;;;;;;;6.60;4.95;;;;;;;31.72;32.20;99224.75;5056492;28;20143;-83
2022/07/11 10:37:08;;;;;;;9.85;4.88;;;;;;;31.78;32.11;99214.19;5055797;28;20267;-82
2022/07/11 10:39:37;;;;;;;6.77;5.00;;;;;;;31.87;31.62;99212.47;5069637;28;20029;-82
2022/07/11 10:42:06;;;;;;;6.68;4.95;;;;;;;31.88;31.84;99207.91;5069875;28;20052;-82
2022/07/11 10:44:51;;;;;;;6.10;4.53;;;;;;;31.97;31.63;99197.09;5056052;28;20045;-83
2022/07/11 10:47:41;;;;;;;9.63;4.55;;;;;;;31.87;31.68;99177.38;5037348;28;20056;-84
2022/07/11 10:50:26;;;;;;;6.88;4.50;;;;;;;32.14;31.34;99200.91;5055168;28;20056;-81
2022/07/11 10:52:56;;;;;;;5.20;4.70;;;;;;;32.08;31.12;99190.69;5054512;28;20052;-83
2022/07/11 10:55:34;;;;;;;6.88;4.32;;;;;;;32.29;31.53;99212.06;5054985;28;20053;-82
2022/07/11 10:58:13;;;;;;;8.48;3.88;;;;;;;32.36;29.45;99199.63;5054175;28;20132;-83
2022/07/11 11:00:40;;;;;;;;;;;;;;;32.24;30.14;99203.53;5055357;28;20055;-83
2022/07/11 11:03:09;;;;;;;14.05;5.25;;;;;;;32.35;29.18;99197.09;5054555;28;19925;-82
2022/07/11 11:05:53;;;;;;;11.25;4.50;;;;;;;32.52;28.86;99195.44;5054638;28;20056;-83
2022/07/11 11:08:35;;;;;;;7.70;4.32;;;;;;;32.50;28.28;99182.06;5054792;28;20099;-81
2022/07/11 11:11:05;;;;;;;6.00;4.00;;;;;;;32.66;28.32;99194.94;5054236;28;20045;-82
2022/07/11 11:13:37;;;;;;;8.05;4.25;;;;;;;32.62;27.94;99186.28;5052811;28;20059;-82
2022/07/11 11:16:20;;;;;;;4.55;4.10;;;;;;;32.70;28.10;99206.28;5054557;28;20053;-82
2022/07/11 11:18:47;;;;;;;10.63;4.13;;;;;;;32.74;27.61;99192.34;5056293;28;20036;-83
2022/07/11 11:21:16;;;;;;;8.38;4.00;;;;;;;32.79;27.22;99200.81;5055200;28;20155;-82
2022/07/11 11:23:59;;;;;;;5.65;3.88;;;;;;;32.73;27.38;99211.41;5053993;28;20140;-83
2022/07/11 11:26:45;;;;;;;4.68;4.00;;;;;;;32.70;27.93;99211.69;5053970;28;20534;-84
2022/07/11 11:29:18;;;;;;;8.88;4.00;;;;;;;32.77;27.91;99223.63;5069179;28;20057;-83
2022/07/11 11:31:57;;;;;;;7.35;4.20;;;;;;;32.79;28.13;99202.69;5036190;28;20080;-83
2022/07/11 12:14:39;;;;;;;6.10;4.05;;;;;;;33.31;26.37;99205.56;5111232;28;20051;-82
2022/07/11 12:17:07;;;;;;;7.60;3.80;;;;;;;33.32;26.85;99200.97;5111888;28;20075;-80
2022/07/11 12:19:35;;;;;;;9.52;4.15;;;;;;;33.43;26.26;99204.31;5094780;28;20075;-83
2022/07/11 12:22:06;;;;;;;17.52;4.72;;;;;;;33.46;26.27;99187.75;5112874;28;20056;-82
2022/07/11 12:24:33;;;;;;;12.15;4.35;;;;;;;33.76;25.98;99225.38;5120707;28;20089;-80
2022/07/11 12:27:00;;;;;;;7.63;4.10;;;;;;;33.69;25.73;99200.81;5124791;28;20077;-80
2022/07/11 12:29:28;;;;;;;7.80;4.15;;;;;;;33.58;26.16;99210.00;5119852;28;20055;-86